Hovedside
METAR-TAF:

METAR-TAF

Lufthavner :

Notodden lufthavn

Notodden, Norge

breddegrad: 59-34N, lengdegrad: 009-13E, høyde over havet: 19 m

Gjeldene værobservasjon

Denne rapporten ble laget for 12 timer og 5 minutter siden, klokken 16:50 UTC
Vind 3 kt fra Øst, skiftende mellom Nord-nordøst og Sørøst
Temperatur 13°C
Luftfuktighet 67%
Trykk 1008 hPa
Sikt 10 km eller mer
Få skyer i en høyde av 3500 ft
Brutte skyer i en høyde av 8500 ft

METAR: ENNO 201650Z 09003KT 030V140 9999 FEW035 BKN085 13/07 Q1008

Tid: 06:55 (04:55 UTC)

Varsel

Denne rapporten ble laget for 15 timer og 58 minutter siden, klokken 12:57 UTC
Varsel gyldig fra 20. klokken 12 UTC til 20. klokken 17 UTC
Vind 8 kt fra Øst-sørøst
Sikt 10 km eller mer
Få skyer i en høyde av 4000 ft
Brutte skyer i en høyde av 8000 ft
Midlertidig
fra 20. klokken 12 UTC til 20. klokken 17 UTC
Brutte skyer i en høyde av 1200 ft
regn

TAF: ENNO 201257Z 2012/2017 11008KT 9999 FEW040 BKN080 TEMPO 2012/2017 RA BKN012

Værobservasjoner og værvarsel for over 4000 flyplasser (METAR- og TAF-rapporter).

Tilgjengelige stasjoner er representert av de røde og gule prikkene på kartet.

Hold musepekeren over prikken for å se navnet på stasjonen.

Klikk så for å se værobservasjoner og -varsler.

For å forandre kartet kan du klikke på den grønne knappen med svart kryss for å zoome inn, på den grønne knappen med strek for å zoome ut, eller på de grønne pilene for å se tilstøtende kart.


METAR-TAF: